Time;durP1;ratioP1;P1;durP2;ratioP2;P2;SDS_P1;SDS_P2;PMS_P1;PMS_P2;Temp;Humidity;BMP_temperature;BMP_pressure;BME280_temperature;BME280_humidity;BME280_pressure;Samples;Min_cycle;Max_cycle;Signal;HPM_P1;HPM_P2
2023/10/27 00:00:03;;;;;;;25.60;4.97;;;;;;;21.98;100.00;100630.22;143720;596;49006;-71
2023/10/27 00:02:29;;;;;;;19.62;4.05;;;;;;;21.98;100.00;100632.97;143718;592;47008;-71
2023/10/27 00:04:55;;;;;;;26.00;6.85;;;;;;;21.90;100.00;100621.47;143715;634;47004;-70
2023/10/27 00:07:22;;;;;;;25.90;5.82;;;;;;;21.89;100.00;100624.50;143716;569;47011;-70
2023/10/27 00:09:48;;;;;;;23.92;5.70;;;;;;;21.87;100.00;100624.81;143715;576;47006;-71
2023/10/27 00:12:14;;;;;;;18.20;5.50;;;;;;;21.87;100.00;100624.81;143719;566;47008;-70
2023/10/27 00:14:40;;;;;;;16.58;5.07;;;;;;;21.91;100.00;100627.78;143722;587;47005;-70
2023/10/27 00:17:07;;;;;;;19.02;4.82;;;;;;;21.92;100.00;100624.78;143720;569;47013;-71
2023/10/27 00:19:33;;;;;;;20.50;5.07;;;;;;;21.91;100.00;100617.66;143716;584;48004;-71
2023/10/27 00:21:59;;;;;;;20.08;4.85;;;;;;;21.87;100.00;100615.75;143721;621;46008;-70
2023/10/27 00:24:26;;;;;;;19.30;4.40;;;;;;;21.94;100.00;100610.84;143722;569;47004;-70
2023/10/27 00:26:52;;;;;;;20.48;5.10;;;;;;;21.88;100.00;100606.47;143715;566;47012;-70
2023/10/27 00:29:18;;;;;;;21.70;4.65;;;;;;;21.83;100.00;100614.66;143715;568;47007;-70
2023/10/27 00:31:44;;;;;;;21.58;5.55;;;;;;;21.83;100.00;100614.66;143720;656;47008;-71
2023/10/27 00:34:11;;;;;;;24.63;5.10;;;;;;;21.77;100.00;100603.78;143719;639;47006;-70
2023/10/27 00:36:37;;;;;;;14.73;4.30;;;;;;;21.84;100.00;100594.44;143715;575;47012;-70
2023/10/27 00:39:04;;;;;;;16.30;4.90;;;;;;;21.88;100.00;100601.00;143719;582;47006;-70
2023/10/27 00:41:31;;;;;;;23.83;5.35;;;;;;;21.89;100.00;100591.69;143722;588;46008;-70
2023/10/27 00:43:58;;;;;;;17.58;4.32;;;;;;;21.91;100.00;100589.50;143719;620;47004;-70
2023/10/27 00:46:25;;;;;;;24.15;5.60;;;;;;;21.85;100.00;100585.13;143720;682;47010;-70
2023/10/27 00:48:51;;;;;;;16.73;4.32;;;;;;;21.82;100.00;100594.72;143720;663;47006;-71
2023/10/27 00:51:18;;;;;;;16.55;4.47;;;;;;;21.74;100.00;100589.81;143720;584;46023;-70
2023/10/27 00:53:44;;;;;;;21.87;4.90;;;;;;;21.72;100.00;100581.06;143717;594;47004;-70
2023/10/27 00:56:10;;;;;;;25.10;4.95;;;;;;;21.67;100.00;100572.91;143716;566;47010;-71
2023/10/27 00:58:38;;;;;;;15.90;4.05;;;;;;;21.70;100.00;100577.81;143717;711;47006;-70
2023/10/27 01:01:07;;;;;;;15.75;3.90;;;;;;;21.74;100.00;100576.16;143721;583;47008;-70
2023/10/27 01:03:33;;;;;;;17.42;4.10;;;;;;;21.71;100.00;100572.06;143721;618;47004;-70
2023/10/27 01:06:00;;;;;;;15.70;4.07;;;;;;;21.73;100.00;100574.50;143719;629;47012;-71
2023/10/27 01:08:26;;;;;;;18.75;4.40;;;;;;;21.68;100.00;100582.75;143722;594;46010;-71
2023/10/27 01:10:53;;;;;;;23.00;5.28;;;;;;;21.60;100.00;100584.94;143718;574;47008;-71
2023/10/27 01:13:19;;;;;;;18.48;6.03;;;;;;;21.63;100.00;100575.34;143719;628;47003;-71
2023/10/27 01:15:45;;;;;;;16.42;5.82;;;;;;;21.72;100.00;100578.34;143719;582;47005;-70
2023/10/27 01:18:12;;;;;;;23.52;6.82;;;;;;;21.77;100.00;100576.44;143713;586;47004;-71
2023/10/27 01:20:38;;;;;;;19.70;6.05;;;;;;;21.80;100.00;100583.25;143717;680;46922;-71
2023/10/27 01:23:04;;;;;;;21.77;5.20;;;;;;;21.75;100.00;100584.09;143722;671;47002;-70
2023/10/27 01:25:31;;;;;;;16.42;4.78;;;;;;;21.68;100.00;100569.06;143721;567;46008;-70
2023/10/27 01:27:57;;;;;;;20.05;4.97;;;;;;;21.67;100.00;100570.16;143717;569;47004;-71
2023/10/27 01:30:24;;;;;;;22.33;6.20;;;;;;;21.68;100.00;100564.41;143721;610;46007;-70
2023/10/27 01:32:50;;;;;;;19.73;5.85;;;;;;;21.60;100.00;100568.53;143717;586;47002;-71
2023/10/27 01:35:17;;;;;;;18.90;4.80;;;;;;;21.53;100.00;100564.41;143720;639;46019;-72
2023/10/27 01:37:43;;;;;;;22.65;6.05;;;;;;;21.59;100.00;100563.31;143720;696;47004;-72
2023/10/27 01:40:10;;;;;;;17.05;5.32;;;;;;;21.56;100.00;100566.59;143722;625;46006;-71
2023/10/27 01:42:37;;;;;;;17.52;4.75;;;;;;;21.53;100.00;100569.88;143716;572;47002;-70
2023/10/27 01:45:04;;;;;;;20.00;5.60;;;;;;;21.49;100.00;100561.44;143719;630;47010;-71
2023/10/27 01:47:31;;;;;;;23.02;5.53;;;;;;;21.54;100.00;100564.12;143718;603;47004;-71
2023/10/27 01:49:58;;;;;;;20.58;5.15;;;;;;;21.54;100.00;100566.88;143721;585;46014;-71
2023/10/27 01:52:24;;;;;;;21.75;5.37;;;;;;;21.42;100.00;100563.63;143720;573;47002;-70
2023/10/27 01:54:50;;;;;;;17.83;5.37;;;;;;;21.46;100.00;100572.91;143717;578;47010;-69
2023/10/27 01:57:17;;;;;;;19.70;5.15;;;;;;;21.45;100.00;100563.06;143718;603;47004;-70
2023/10/27 01:59:44;;;;;;;15.15;4.53;;;;;;;21.47;100.00;100558.97;143720;596;46007;-70
2023/10/27 04:02:00;;;;;;;40.17;6.47;;;;;;;21.13;100.00;100592.31;143719;587;46008;-70
2023/10/27 04:04:26;;;;;;;33.75;5.85;;;;;;;21.10;100.00;100589.31;143715;579;47003;-69
2023/10/27 04:06:54;;;;;;;25.02;5.15;;;;;;;20.96;100.00;100586.28;143715;567;47011;-69
2023/10/27 04:09:23;;;;;;;27.08;6.75;;;;;;;21.01;100.00;100580.84;143715;580;47004;-69
2023/10/27 04:11:49;;;;;;;25.52;5.62;;;;;;;21.04;100.00;100586.56;143716;597;47005;-70
2023/10/27 04:14:17;;;;;;;22.25;5.18;;;;;;;20.99;100.00;100596.69;143717;601;47005;-70
2023/10/27 04:16:43;;;;;;;26.55;6.20;;;;;;;21.02;100.00;100591.47;143717;575;47008;-69
2023/10/27 04:19:10;;;;;;;26.48;5.85;;;;;;;21.00;100.00;100584.66;143711;596;49004;-70
2023/10/27 04:21:36;;;;;;;28.70;5.93;;;;;;;21.05;100.00;100593.66;143717;696;47007;-70
2023/10/27 04:24:03;;;;;;;23.02;6.00;;;;;;;21.04;100.00;100599.41;143717;578;47002;-69
2023/10/27 04:26:29;;;;;;;29.77;5.53;;;;;;;20.92;100.00;100599.69;143717;595;47008;-70
2023/10/27 04:28:56;;;;;;;26.95;6.32;;;;;;;20.99;100.00;100597.50;143713;567;47005;-70
2023/10/27 04:31:22;;;;;;;27.02;5.78;;;;;;;20.99;100.00;100588.47;143718;576;47006;-71
2023/10/27 04:33:49;;;;;;;23.87;6.35;;;;;;;20.92;100.00;100588.75;143718;603;47000;-70
2023/10/27 04:36:15;;;;;;;25.70;6.30;;;;;;;20.96;100.00;100603.50;143715;590;47010;-70
2023/10/27 04:38:44;;;;;;;32.65;6.37;;;;;;;20.98;100.00;100600.50;143717;591;47008;-70
2023/10/27 04:41:11;;;;;;;24.37;5.43;;;;;;;21.00;100.00;100609.25;143718;576;47006;-70
2023/10/27 04:43:37;;;;;;;31.90;6.35;;;;;;;20.95;100.00;100606.50;143719;592;46002;-71
2023/10/27 04:46:04;;;;;;;42.05;7.35;;;;;;;20.88;100.00;100609.50;143715;582;47004;-70
2023/10/27 04:48:30;;;;;;;39.03;7.53;;;;;;;20.89;100.00;100603.78;143713;749;47004;-69
2023/10/27 04:51:03;;;;;;;28.33;7.12;;;;;;;20.89;100.00;100601.03;143716;725;47007;-70
2023/10/27 04:53:30;;;;;;;32.95;6.60;;;;;;;20.95;100.00;100598.31;143714;620;47002;-70
2023/10/27 04:55:57;;;;;;;24.73;6.95;;;;;;;20.95;100.00;100599.13;143715;572;47010;-70
2023/10/27 04:58:24;;;;;;;35.00;6.70;;;;;;;20.88;100.00;100604.88;143714;567;47004;-71
2023/10/27 05:00:50;;;;;;;43.30;9.15;;;;;;;20.84;100.00;100600.19;143717;594;47006;-71
2023/10/27 05:03:18;;;;;;;51.08;8.55;;;;;;;20.82;100.00;100595.03;143723;575;47004;-71
2023/10/27 05:05:44;;;;;;;38.05;8.75;;;;;;;20.88;100.00;100588.50;143721;599;47009;-71
2023/10/27 05:08:11;;;;;;;52.70;9.38;;;;;;;20.85;100.00;100585.47;143718;581;47002;-71
2023/10/27 05:10:38;;;;;;;38.17;8.85;;;;;;;20.87;100.00;100581.38;143720;599;46006;-73
2023/10/27 05:13:05;;;;;;;48.20;8.50;;;;;;;20.85;100.00;100580.00;143715;728;47004;-71
2023/10/27 05:15:31;;;;;;;29.02;8.48;;;;;;;20.85;100.00;100580.00;143717;670;47010;-71
2023/10/27 05:18:04;;;;;;;33.78;10.40;;;;;;;20.85;100.00;100577.28;143722;650;47004;-71
2023/10/27 05:20:35;;;;;;;40.10;9.10;;;;;;;20.88;100.00;100582.19;143718;585;47007;-72
2023/10/27 05:23:01;;;;;;;44.80;8.68;;;;;;;20.88;100.00;100590.38;143717;642;47004;-71
2023/10/27 05:25:28;;;;;;;40.78;8.85;;;;;;;20.86;100.00;100592.56;143716;591;47004;-72
2023/10/27 05:27:54;;;;;;;38.10;8.75;;;;;;;20.89;100.00;100586.56;143718;590;47004;-71
2023/10/27 05:30:20;;;;;;;36.35;8.15;;;;;;;20.98;100.00;100593.13;143718;584;47004;-71
2023/10/27 05:32:46;;;;;;;52.05;9.93;;;;;;;21.01;100.00;100595.31;143721;585;47002;-71
2023/10/27 05:35:13;;;;;;;34.90;9.13;;;;;;;21.07;100.00;100593.41;143717;568;47008;-71
2023/10/27 05:37:39;;;;;;;39.85;8.35;;;;;;;21.14;100.00;100591.22;143719;575;47004;-71
2023/10/27 05:40:06;;;;;;;33.50;7.78;;;;;;;21.24;100.00;100589.59;143722;597;45922;-71
2023/10/27 05:42:33;;;;;;;31.77;7.43;;;;;;;21.33;100.00;100598.88;143723;592;47000;-70
2023/10/27 05:44:59;;;;;;;31.35;7.95;;;;;;;21.41;100.00;100605.69;143720;649;46921;-71
2023/10/27 05:47:25;;;;;;;36.22;9.18;;;;;;;21.44;100.00;100603.25;143715;580;47006;-71
2023/10/27 05:49:54;;;;;;;33.75;6.95;;;;;;;21.46;100.00;100606.50;143723;640;47002;-69
2023/10/27 05:52:21;;;;;;;29.90;6.75;;;;;;;21.52;100.00;100599.13;143722;592;47006;-70
2023/10/27 05:54:47;;;;;;;22.48;6.25;;;;;;;21.60;100.00;100600.50;143719;683;47006;-70
2023/10/27 05:57:14;;;;;;;29.08;6.20;;;;;;;21.62;100.00;100604.59;143720;583;47006;-70
2023/10/27 05:59:41;;;;;;;19.83;5.72;;;;;;;21.71;100.00;100609.53;143723;754;46924;-69
2023/10/27 06:02:07;;;;;;;27.70;6.37;;;;;;;21.71;100.00;100620.47;143723;575;47006;-71
2023/10/27 06:04:38;;;;;;;22.87;5.50;;;;;;;21.71;100.00;100615.00;143719;601;47011;-71
2023/10/27 06:07:04;;;;;;;20.27;6.37;;;;;;;21.77;100.00;100608.41;143720;582;47006;-71
2023/10/27 06:09:31;;;;;;;25.25;7.18;;;;;;;21.89;100.00;100608.09;143718;767;47008;-71
2023/10/27 06:11:58;;;;;;;22.25;5.62;;;;;;;21.92;100.00;100611.09;143716;568;47004;-70
2023/10/27 06:14:24;;;;;;;26.75;6.12;;;;;;;22.05;100.00;100617.91;143714;620;47013;-71
2023/10/27 06:16:50;;;;;;;27.15;6.60;;;;;;;22.15;100.00;100624.44;143719;568;47006;-70
2023/10/27 06:19:17;;;;;;;28.30;7.90;;;;;;;22.21;100.00;100635.09;143723;573;46009;-70
2023/10/27 06:21:44;;;;;;;25.33;5.62;;;;;;;22.27;100.00;100625.75;143722;762;47004;-71
2023/10/27 06:24:10;;;;;;;21.12;5.80;;;;;;;22.38;100.00;100626.53;143717;679;47012;-71
2023/10/27 06:26:37;;;;;;;23.38;5.25;;;;;;;22.44;100.00;100629.28;143721;573;47006;-71
2023/10/27 06:29:03;;;;;;;27.77;6.60;;;;;;;22.50;100.00;100628.97;143718;587;47008;-71
2023/10/27 06:31:29;;;;;;;20.92;6.07;;;;;;;22.49;100.00;100629.25;143719;595;47004;-71
2023/10/27 06:33:56;;;;;;;29.90;6.22;;;;;;;22.58;100.00;100638.50;143717;574;47010;-72
2023/10/27 06:36:22;;;;;;;24.90;5.72;;;;;;;22.65;100.00;100635.47;143717;572;47006;-70
2023/10/27 06:38:48;;;;;;;23.08;4.57;;;;;;;22.74;100.00;100635.69;143721;584;47008;-71
2023/10/27 06:41:15;;;;;;;28.45;5.60;;;;;;;22.73;100.00;100629.41;143720;611;47006;-71
2023/10/27 06:43:41;;;;;;;26.83;6.43;;;;;;;22.84;100.00;100632.91;143718;637;47010;-71
2023/10/27 06:46:07;;;;;;;30.60;5.40;;;;;;;22.78;100.00;100637.56;143720;576;47006;-73
2023/10/27 06:48:33;;;;;;;27.52;6.30;;;;;;;22.94;100.00;100629.28;143720;589;46008;-71
2023/10/27 06:51:00;;;;;;;26.40;5.93;;;;;;;23.12;100.00;100642.28;143726;568;46011;-70
2023/10/27 06:53:26;;;;;;;29.10;7.90;;;;;;;23.18;100.00;100637.59;143720;655;46030;-71
2023/10/27 06:55:52;;;;;;;33.55;8.60;;;;;;;23.28;100.00;100642.22;143720;597;47006;-70
2023/10/27 06:58:19;;;;;;;37.67;7.95;;;;;;;23.30;100.00;100643.53;143722;691;46009;-70
2023/10/27 07:00:45;;;;;;;31.80;6.53;;;;;;;23.39;100.00;100642.91;143716;633;47006;-70
2023/10/27 07:03:12;;;;;;;31.62;7.20;;;;;;;23.51;100.00;100648.84;143724;573;46010;-69
2023/10/27 07:05:38;;;;;;;28.40;7.40;;;;;;;23.55;100.00;100641.69;143722;624;46012;-70
2023/10/27 07:08:06;;;;;;;22.25;6.32;;;;;;;23.60;100.00;100649.84;143721;597;46024;-70
2023/10/27 07:10:33;;;;;;;31.15;7.50;;;;;;;23.69;100.00;100654.72;143719;628;47006;-71
2023/10/27 07:12:59;;;;;;;36.80;6.40;;;;;;;23.83;100.00;100654.88;143722;606;47013;-71
2023/10/27 07:15:25;;;;;;;45.12;6.78;;;;;;;23.93;100.00;100654.75;143719;706;47006;-71
2023/10/27 07:17:52;;;;;;;31.90;7.07;;;;;;;24.09;100.00;100649.12;143721;591;47008;-71
2023/10/27 07:20:18;;;;;;;31.37;6.80;;;;;;;24.20;100.00;100654.22;143725;633;47004;-71
2023/10/27 07:22:44;;;;;;;28.10;7.87;;;;;;;24.36;100.00;100643.06;143719;592;47012;-71
2023/10/27 07:25:11;;;;;;;26.27;7.37;;;;;;;24.48;100.00;100648.94;143716;684;47006;-71
2023/10/27 07:27:37;;;;;;;31.92;7.82;;;;;;;24.58;100.00;100649.91;143722;584;47002;-70
2023/10/27 07:30:05;;;;;;;29.30;6.87;;;;;;;24.62;100.00;100649.03;143724;639;47004;-71
2023/10/27 07:32:31;;;;;;;30.15;8.23;;;;;;;24.71;100.00;100642.91;143720;584;46006;-71
2023/10/27 07:34:58;;;;;;;28.45;6.82;;;;;;;24.73;100.00;100647.00;143722;577;47006;-77
2023/10/27 07:37:24;;;;;;;32.20;7.32;;;;;;;24.85;100.00;100656.72;143721;568;47008;-71
2023/10/27 07:39:51;;;;;;;42.15;6.53;;;;;;;24.97;100.00;100646.91;143726;582;47004;-71
2023/10/27 07:42:17;;;;;;;29.12;6.87;;;;;;;25.16;100.00;100639.75;143718;580;47012;-71
2023/10/27 07:44:43;;;;;;;33.38;6.43;;;;;;;25.24;100.00;100636.34;143724;574;47006;-72
2023/10/27 07:47:10;;;;;;;35.15;7.03;;;;;;;25.42;100.00;100642.91;143720;579;46024;-71
2023/10/27 07:49:37;;;;;;;38.35;6.40;;;;;;;25.46;100.00;100640.41;143719;623;47007;-72
2023/10/27 07:52:03;;;;;;;24.85;6.53;;;;;;;25.58;100.00;100640.72;143720;622;47012;-71
2023/10/27 07:54:31;;;;;;;23.48;6.03;;;;;;;25.72;100.00;100644.31;143716;603;47006;-71
2023/10/27 07:57:00;;;;;;;27.37;6.32;;;;;;;25.86;100.00;100641.59;143719;598;47008;-72
2023/10/27 07:59:27;;;;;;;21.23;6.22;;;;;;;25.97;100.00;100635.88;143725;611;47006;-70
2023/10/27 08:01:54;;;;;;;31.80;7.30;;;;;;;26.06;100.00;100639.56;143721;575;47006;-69
2023/10/27 08:04:21;;;;;;;30.37;6.28;;;;;;;26.23;100.00;100643.69;143723;623;47006;-75
2023/10/27 08:06:47;;;;;;;30.77;5.78;;;;;;;26.33;100.00;100638.78;143721;607;47018;-69
2023/10/27 08:09:14;;;;;;;19.40;5.97;;;;;;;26.46;100.00;100648.16;143725;569;46008;-72
2023/10/27 08:11:40;;;;;;;25.48;6.85;;;;;;;26.62;100.00;100634.84;143718;609;47012;-72
2023/10/27 08:14:07;;;;;;;28.10;5.50;;;;;;;26.77;100.00;100633.69;143719;590;46010;-72
2023/10/27 08:16:33;;;;;;;33.03;5.90;;;;;;;26.85;100.00;100631.34;143723;566;46008;-72
2023/10/27 08:18:59;;;;;;;29.83;5.65;;;;;;;26.91;100.00;100630.94;143721;632;47006;-72
2023/10/27 08:21:26;;;;;;;23.12;5.30;;;;;;;27.07;100.00;100620.34;143719;614;47004;-72
2023/10/27 08:23:52;;;;;;;31.25;6.40;;;;;;;27.22;100.00;100621.91;143720;640;47012;-72
2023/10/27 08:26:19;;;;;;;26.17;6.90;;;;;;;27.43;100.00;100621.41;143723;567;46009;-72
2023/10/27 08:28:45;;;;;;;34.25;7.32;;;;;;;27.54;100.00;100610.91;143719;589;47004;-72
2023/10/27 08:31:18;;;;;;;21.45;4.95;;;;;;;27.75;100.00;100613.94;143720;594;47010;-71
2023/10/27 08:33:45;;;;;;;23.10;3.83;;;;;;;27.91;100.00;100616.28;143722;644;47006;-72
2023/10/27 08:39:35;;;;;;;11.45;4.03;;;;;;;28.18;100.00;100611.66;143719;618;47006;-71
2023/10/27 08:42:07;;;;;;;13.13;3.78;;;;;;;28.33;100.00;100616.75;143721;642;47011;-72
2023/10/27 08:44:34;;;;;;;13.07;4.78;;;;;;;28.66;100.00;100621.00;143723;687;47006;-71
2023/10/27 08:47:04;;;;;;;9.07;2.85;;;;;;;29.54;100.00;100596.06;143722;646;46008;-72
2023/10/27 08:49:31;;;;;;;7.62;2.75;;;;;;;34.76;80.98;100527.56;143724;681;47006;-71
2023/10/27 08:52:02;;;;;;;10.00;2.83;;;;;;;39.52;55.43;100507.13;143724;582;47006;-71
2023/10/27 08:54:31;;;;;;;19.08;6.55;;;;;;;42.59;45.41;100499.56;143721;742;47006;-71
2023/10/27 08:56:58;;;;;;;17.73;4.05;;;;;;;44.27;40.09;100487.69;143723;695;47008;-71
2023/10/27 08:59:25;;;;;;;11.38;5.30;;;;;;;45.66;36.73;100487.50;143723;702;47004;-72
2023/10/27 09:01:54;;;;;;;9.00;2.65;;;;;;;46.74;32.75;100476.94;143719;580;47923;-71
2023/10/27 09:04:23;;;;;;;14.07;3.05;;;;;;;47.58;30.41;100467.16;143716;639;47007;-71
2023/10/27 09:06:50;;;;;;;14.15;4.20;;;;;;;48.37;29.80;100463.31;143724;683;46008;-71
2023/10/27 09:09:18;;;;;;;15.27;4.20;;;;;;;48.61;29.61;100467.69;143723;577;47004;-72
2023/10/27 09:11:47;;;;;;;14.20;3.30;;;;;;;48.78;28.51;100460.47;143720;626;47011;-73
2023/10/27 09:14:22;;;;;;;11.63;2.60;;;;;;;49.03;28.13;100454.94;143721;575;47006;-71
2023/10/27 09:16:50;;;;;;;15.13;3.08;;;;;;;49.51;27.19;100454.50;143722;567;47008;-70
2023/10/27 09:19:26;;;;;;;8.98;2.78;;;;;;;49.80;26.92;100453.16;143725;586;47004;-71
2023/10/27 09:21:53;;;;;;;11.00;2.97;;;;;;;49.61;27.05;100448.25;143722;630;47010;-72
2023/10/27 09:24:32;;;;;;;9.65;3.20;;;;;;;49.59;26.12;100452.88;143720;575;47006;-72
2023/10/27 09:27:00;;;;;;;12.85;3.05;;;;;;;50.11;25.90;100452.91;143723;781;46925;-72
2023/10/27 09:29:31;;;;;;;13.18;2.80;;;;;;;47.90;27.75;100524.94;143717;594;47004;-71
2023/10/27 09:31:58;;;;;;;8.52;2.53;;;;;;;43.79;31.75;100516.13;143722;594;46012;-72
2023/10/27 09:34:29;;;;;;;7.82;2.10;;;;;;;41.12;34.81;100531.78;143721;612;48004;-72
2023/10/27 09:36:59;;;;;;;8.38;2.53;;;;;;;39.68;38.39;100523.56;143725;568;46008;-72
2023/10/27 09:39:26;;;;;;;11.23;2.35;;;;;;;40.12;38.06;100492.50;143723;573;47006;-71
2023/10/27 09:42:04;;;;;;;13.05;3.67;;;;;;;41.85;35.34;100484.78;143721;580;47019;-71
2023/10/27 09:44:40;;;;;;;9.15;1.92;;;;;;;43.39;34.59;100480.09;143718;566;47006;-72
2023/10/27 09:47:28;;;;;;;7.50;2.20;;;;;;;44.90;31.67;100474.50;143721;590;47002;-71
2023/10/27 09:50:00;;;;;;;31.45;9.13;;;;;;;44.46;31.98;100491.72;143722;667;47004;-72
2023/10/27 09:52:29;;;;;;;17.60;4.83;;;;;;;43.69;32.68;100500.16;143722;594;46922;-72
2023/10/27 09:55:02;;;;;;;7.95;2.60;;;;;;;42.36;33.36;100499.09;143716;632;47006;-72
2023/10/27 09:57:29;;;;;;;13.18;2.37;;;;;;;41.25;34.94;100496.25;143722;584;46997;-72
2023/10/27 09:59:58;;;;;;;14.98;2.58;;;;;;;40.46;35.60;100491.94;143720;568;47006;-72
2023/10/27 10:02:25;;;;;;;16.45;3.33;;;;;;;39.84;38.13;100485.78;143720;789;47010;-72
2023/10/27 10:05:01;;;;;;;11.23;2.70;;;;;;;39.43;37.34;100484.28;143721;583;47006;-72
2023/10/27 10:07:34;;;;;;;19.90;3.95;;;;;;;38.89;40.28;100487.87;143721;572;47002;-71
2023/10/27 10:10:29;;;;;;;17.55;4.82;;;;;;;37.42;45.08;100489.62;143723;793;47004;-72
2023/10/27 10:13:18;;;;;;;18.58;4.93;;;;;;;36.98;47.13;100485.66;143719;568;47006;-72
2023/10/27 10:15:46;;;;;;;16.05;3.65;;;;;;;36.21;49.31;100485.16;143723;567;47006;-71
2023/10/27 10:18:59;;;;;;;15.05;4.05;;;;;;;35.88;51.72;100487.53;143721;605;47008;-72
2023/10/27 10:21:35;;;;;;;15.77;4.17;;;;;;;35.46;53.58;100482.94;143717;602;47004;-71
2023/10/27 10:24:08;;;;;;;23.10;5.10;;;;;;;35.33;54.43;100482.31;143717;643;47012;-71
2023/10/27 10:27:10;;;;;;;18.83;4.00;;;;;;;35.34;55.56;100478.34;143723;610;47007;-71
2023/10/27 10:29:37;;;;;;;16.27;4.68;;;;;;;35.24;52.77;100467.81;143723;588;47008;-71
2023/10/27 10:32:31;;;;;;;21.33;4.05;;;;;;;34.91;52.94;100467.22;143722;594;47006;-71
2023/10/27 10:35:21;;;;;;;13.15;3.55;;;;;;;34.53;54.22;100461.38;143721;583;47010;-70
2023/10/27 10:37:49;;;;;;;18.17;4.70;;;;;;;34.01;58.94;100453.16;143718;567;47006;-70
2023/10/27 10:40:22;;;;;;;25.05;4.85;;;;;;;33.71;61.84;100470.38;143719;595;47004;-70
2023/10/27 10:43:27;;;;;;;23.45;5.07;;;;;;;32.70;64.48;100467.06;143719;617;46010;-71
2023/10/27 10:46:04;;;;;;;17.20;4.50;;;;;;;32.27;66.54;100461.16;143713;614;48006;-70
2023/10/27 10:48:32;;;;;;;18.37;4.80;;;;;;;32.34;66.81;100453.81;143712;616;47006;-69
2023/10/27 10:51:04;;;;;;;15.77;4.30;;;;;;;32.11;67.48;100455.47;143721;627;47006;-69
2023/10/27 10:53:31;;;;;;;14.70;4.03;;;;;;;32.03;67.60;100458.06;143720;592;47006;-69
2023/10/27 10:56:00;;;;;;;18.35;4.90;;;;;;;32.29;68.39;100462.41;143720;567;46012;-71
2023/10/27 10:58:35;;;;;;;13.73;3.95;;;;;;;32.41;67.29;100463.50;143721;588;46006;-71
2023/10/27 11:01:03;;;;;;;17.20;4.07;;;;;;;32.46;68.39;100464.06;143723;579;47002;-71
2023/10/27 11:03:34;;;;;;;22.02;4.60;;;;;;;32.26;67.63;100462.28;143723;594;46006;-71
2023/10/27 11:06:05;;;;;;;23.33;4.35;;;;;;;31.84;68.59;100457.87;143718;591;46012;-69
2023/10/27 11:08:37;;;;;;;14.55;3.75;;;;;;;31.57;69.05;100452.69;143719;566;47006;-71
2023/10/27 11:11:09;;;;;;;15.20;3.65;;;;;;;31.55;69.09;100443.91;143723;585;46009;-71
2023/10/27 11:13:53;;;;;;;16.67;3.37;;;;;;;31.54;69.94;100441.47;143719;598;46006;-71
2023/10/27 11:16:22;;;;;;;;;;;;;;;31.72;70.63;100436.50;143725;984;46012;-71
2023/10/27 11:18:51;;;;;;;14.25;3.75;;;;;;;31.75;69.84;100433.03;143725;594;47005;-72
2023/10/27 11:21:19;;;;;;;22.13;4.80;;;;;;;31.61;70.63;100439.72;143722;576;46008;-72
2023/10/27 11:23:47;;;;;;;18.00;3.72;;;;;;;31.48;70.90;100448.41;143718;615;47002;-72
2023/10/27 11:26:14;;;;;;;15.98;3.25;;;;;;;31.47;70.49;100449.56;143720;599;46013;-71
2023/10/27 11:28:41;;;;;;;20.58;3.85;;;;;;;31.69;69.75;100437.97;143719;601;47004;-71
2023/10/27 11:31:12;;;;;;;13.93;3.62;;;;;;;31.68;68.44;100441.09;143720;566;47004;-70
2023/10/27 11:34:04;;;;;;;21.95;3.40;;;;;;;31.52;69.07;100441.81;143716;660;47004;-71
2023/10/27 11:36:35;;;;;;;16.48;3.53;;;;;;;31.52;69.57;100433.50;143717;567;46012;-72
2023/10/27 11:39:21;;;;;;;14.35;4.05;;;;;;;31.58;70.04;100428.50;143718;626;46006;-72
2023/10/27 11:41:54;;;;;;;17.87;3.70;;;;;;;31.62;69.25;100426.66;143721;628;46008;-71
2023/10/27 11:44:21;;;;;;;21.02;3.47;;;;;;;31.71;69.57;100416.25;143720;579;47006;-71
2023/10/27 11:46:58;;;;;;;17.35;3.55;;;;;;;31.73;69.20;100427.81;143723;593;46010;-71
2023/10/27 11:49:25;;;;;;;12.37;3.60;;;;;;;31.78;70.46;100417.63;143718;659;47006;-72
2023/10/27 11:51:54;;;;;;;15.43;4.47;;;;;;;31.77;74.70;100416.00;143720;575;47008;-72
2023/10/27 11:54:22;;;;;;;12.98;2.95;;;;;;;31.85;71.38;100413.09;143725;615;46008;-72
2023/10/27 11:56:49;;;;;;;11.98;3.35;;;;;;;31.84;71.21;100403.13;143723;576;46013;-72
2023/10/27 11:59:17;;;;;;;28.00;19.40;;;;;;;31.92;71.59;100406.94;143724;584;46004;-69
2023/10/27 12:01:43;;;;;;;45.63;37.13;;;;;;;32.02;71.28;100406.44;143718;603;47009;-72
2023/10/27 12:04:13;;;;;;;38.15;29.55;;;;;;;31.98;69.36;100410.25;143717;592;47010;-73
2023/10/27 12:06:40;;;;;;;23.95;16.33;;;;;;;31.88;66.65;100408.78;143715;591;47012;-72
2023/10/27 12:09:07;;;;;;;26.20;14.23;;;;;;;31.83;67.80;100406.28;143715;640;46011;-73
2023/10/27 12:11:37;;;;;;;19.40;4.60;;;;;;;31.64;69.37;100404.09;143713;574;46011;-71
2023/10/27 12:14:04;;;;;;;18.77;5.72;;;;;;;31.61;69.03;100403.63;143722;623;46010;-71
2023/10/27 12:16:30;;;;;;;7.80;2.33;;;;;;;31.49;65.11;100389.78;143723;603;46012;-72
2023/10/27 12:18:57;;;;;;;9.52;2.70;;;;;;;31.45;66.43;100397.19;143719;645;47004;-71
2023/10/27 12:21:27;;;;;;;5.97;2.50;;;;;;;31.45;69.29;100395.22;143725;629;46020;-71
2023/10/27 12:23:54;;;;;;;14.82;3.28;;;;;;;31.43;68.49;100400.31;143720;573;47006;-72
2023/10/27 12:26:23;;;;;;;18.83;5.85;;;;;;;31.43;67.95;100403.09;143717;671;47010;-73
2023/10/27 12:28:49;;;;;;;13.80;3.00;;;;;;;31.37;65.35;100407.25;143717;572;46926;-73
2023/10/27 12:31:16;;;;;;;11.07;3.25;;;;;;;31.22;68.89;100400.47;143719;594;46012;-73
2023/10/27 12:33:43;;;;;;;15.38;3.72;;;;;;;31.17;69.04;100389.59;143720;594;47008;-73
2023/10/27 12:36:11;;;;;;;22.60;10.18;;;;;;;31.26;71.98;100386.69;143716;578;47004;-72
2023/10/27 12:38:39;;;;;;;15.20;4.75;;;;;;;31.27;70.81;100389.09;143717;602;49010;-74
2023/10/27 12:41:05;;;;;;;19.98;4.18;;;;;;;31.23;70.86;100393.75;143718;581;46011;-72
2023/10/27 12:43:32;;;;;;;21.92;4.40;;;;;;;31.06;69.92;100386.44;143719;594;47006;-72
2023/10/27 12:46:04;;;;;;;22.42;11.20;;;;;;;31.06;72.37;100396.72;143718;593;46922;-72
2023/10/27 12:48:32;;;;;;;10.87;5.50;;;;;;;31.02;67.54;100387.47;143715;584;46010;-72
2023/10/27 12:51:00;;;;;;;13.05;5.75;;;;;;;31.02;71.73;100382.72;143719;584;46017;-72
2023/10/27 12:53:27;;;;;;;33.42;17.42;;;;;;;31.02;72.65;100382.72;143721;607;46010;-73
2023/10/27 12:55:54;;;;;;;14.05;4.05;;;;;;;30.95;70.16;100386.09;143718;597;46010;-72
2023/10/27 12:58:20;;;;;;;10.40;3.10;;;;;;;30.81;67.28;100386.41;143714;580;48004;-72
2023/10/27 13:00:48;;;;;;;12.20;3.47;;;;;;;30.71;70.64;100389.63;143724;610;46008;-72
2023/10/27 13:03:16;;;;;;;18.77;3.53;;;;;;;30.73;70.50;100389.28;143720;573;47002;-72
2023/10/27 13:05:43;;;;;;;13.75;2.62;;;;;;;30.60;65.14;100388.47;143717;566;46012;-72
2023/10/27 13:08:11;;;;;;;10.23;2.40;;;;;;;30.54;64.79;100385.06;143719;617;47006;-72
2023/10/27 13:10:37;;;;;;;16.42;2.83;;;;;;;30.54;64.32;100385.87;143720;604;46009;-73
2023/10/27 13:13:04;;;;;;;9.05;1.83;;;;;;;30.55;64.92;100387.53;143718;607;46004;-73
2023/10/27 13:15:35;;;;;;;7.60;1.42;;;;;;;30.49;64.08;100383.31;143724;568;46922;-73
2023/10/27 13:18:05;;;;;;;11.00;1.37;;;;;;;30.48;64.44;100387.25;143716;640;47006;-73
2023/10/27 13:20:32;;;;;;;11.20;2.10;;;;;;;30.50;64.88;100389.69;143723;590;46008;-73